Terminal Aerodrome Forecast
Issued by NWS

Current Version | Previous Version | Text Only | Print | Product List | Glossary On
Versions: 1 2 3 4 5 6 7 8 9 10 11 12 13 14 15 16 17 18
000 FTUS42 KRAH 051503 CCA TAFRWI TAF COR KRWI 051503Z 0515/0612 36007KT P6SM SCT006 BKN250 TEMPO 0515/0516 BKN006 FM060400 07004KT P6SM BKN040 BKN120 FM061000 06005KT 5SM -RA BR BKN008 OVC025=

USA.gov is the U.S. government's official web portal to all federal, state and local government web resources and services.